Alfred, North Dakota
Current Conditions -  °F | °C
As of 3:56 PM on Thursday 23 Oct 2014 (Local Time) from KJMS Reporting Station
Clear Clear  
Wind Chill: 21°   Ceiling: Unl
Heat Index: 21°   Visibility: 10mi
Dew Point:   Wind: 9mph
Humidity: 27%   Direction: 250°WSW
Pressure: 29.82"   Gusts: NA
Location:  46.4882°N, 98.8135°W
Report Text: KJMS 232056Z AUTO 25008KT 10SM CLR 21/01 A2982 RMK AO2 SLP099 T02110011 56016
Loading
Personal Weather Stations






























Interactive Weather Map
Tropical Storm Tracking
New forecast layout! Learn more

10-Day Weather Forecast

Advertisements
Track Severe Weather on mobile